createdAt,value
2019-02-07T00:00:27.796Z,142949.69
2019-02-07T00:05:23.685Z,142955.55
2019-02-07T00:10:19.975Z,142941.48
2019-02-07T00:15:16.064Z,142932.12
2019-02-07T00:20:15.025Z,142957.86
2019-02-07T00:25:10.936Z,142962.56
2019-02-07T00:30:10.542Z,142916.91
2019-02-07T00:35:08.534Z,142929.78
2019-02-07T00:40:10.442Z,142961.36
2019-02-07T00:45:09.133Z,142899.39
2019-02-07T00:50:07.925Z,142932.12
2019-02-07T00:55:07.320Z,142963.72
2019-02-07T01:00:15.892Z,142955.55
2019-02-07T01:05:12.785Z,142971.92
2019-02-07T01:10:11.554Z,142976.58
2019-02-07T01:15:09.798Z,142967.22
2019-02-07T01:20:11.720Z,142945.00
2019-02-07T01:25:10.810Z,142950.84
2019-02-07T01:30:10.310Z,142959.06
2019-02-07T01:35:07.395Z,142974.27
2019-02-07T01:40:10.208Z,142962.56
2019-02-07T01:45:13.156Z,142969.56
2019-02-07T01:50:10.288Z,142969.56
2019-02-07T01:55:06.302Z,142947.34
2019-02-07T02:00:07.803Z,142936.83
2019-02-07T02:05:05.260Z,142920.42
2019-02-07T02:10:01.523Z,142873.62
2019-02-07T02:14:57.506Z,142858.47
2019-02-07T02:19:53.479Z,142854.91
2019-02-07T02:24:49.457Z,142851.41
2019-02-07T02:29:46.411Z,142842.05
2019-02-07T02:34:42.931Z,142821.03
2019-02-07T02:39:39.449Z,142850.25
2019-02-07T02:44:35.393Z,142846.75
2019-02-07T02:49:31.394Z,142845.56
2019-02-07T02:54:36.091Z,142812.83
2019-02-07T02:59:32.034Z,142826.84
2019-02-07T03:04:29.924Z,142823.34
2019-02-07T03:09:45.945Z,142810.48
2019-02-07T03:14:46.256Z,142783.61
2019-02-07T03:20:00.777Z,142769.56
2019-02-07T03:25:15.179Z,142769.56
2019-02-07T03:30:22.113Z,142752.00
2019-02-07T03:35:22.631Z,142754.36
2019-02-07T03:40:32.231Z,142709.91
2019-02-07T03:45:32.799Z,142714.59
2019-02-07T03:50:47.645Z,142700.55
2019-02-07T03:55:45.444Z,142667.84
2019-02-07T04:00:43.361Z,142649.14
2019-02-07T04:05:59.566Z,142639.78
2019-02-07T04:11:09.645Z,142639.78
2019-02-07T04:16:17.084Z,142616.39
2019-02-07T04:21:29.896Z,142607.05
2019-02-07T04:26:33.305Z,142611.75
2019-02-07T04:31:34.177Z,142609.39
2019-02-07T04:36:48.804Z,142649.14
2019-02-07T04:41:49.917Z,142616.39
2019-02-07T04:47:04.152Z,142640.94
2019-02-07T04:52:11.018Z,142663.14
2019-02-07T04:57:15.121Z,142683.00
2019-02-07T05:02:18.709Z,142700.55
2019-02-07T05:07:16.513Z,142729.75
2019-02-07T05:12:14.307Z,142763.70
2019-02-07T05:17:27.248Z,142754.36
2019-02-07T05:22:25.036Z,142756.70
2019-02-07T05:27:34.924Z,142774.27
2019-02-07T05:32:37.803Z,142759.06
2019-02-07T05:37:35.602Z,142784.77
2019-02-07T05:42:33.403Z,142784.77
2019-02-07T05:47:36.998Z,142798.78
2019-02-07T05:52:34.795Z,142809.33
2019-02-07T05:57:41.366Z,142809.33
2019-02-07T06:02:39.161Z,142815.19
2019-02-07T06:07:39.755Z,142806.98
2019-02-07T06:12:46.901Z,142787.13
2019-02-07T06:17:44.691Z,142805.83
2019-02-07T06:22:57.837Z,142801.13
2019-02-07T06:27:55.632Z,142789.42
2019-02-07T06:32:53.517Z,142790.63
2019-02-07T06:37:54.370Z,142810.48
2019-02-07T06:42:52.171Z,142802.33
2019-02-07T06:47:53.221Z,142804.63
2019-02-07T06:52:51.021Z,142805.83
2019-02-07T06:57:51.598Z,142822.19
2019-02-07T07:02:49.381Z,142813.98
2019-02-07T07:07:49.720Z,142801.13
2019-02-07T07:12:47.632Z,142815.19
2019-02-07T07:17:51.319Z,142831.55
2019-02-07T07:23:05.998Z,142864.27
2019-02-07T07:28:09.850Z,142864.27
2019-02-07T07:33:07.640Z,142857.27
2019-02-07T07:38:05.538Z,142866.62
2019-02-07T07:43:12.015Z,142871.33
2019-02-07T07:48:09.911Z,142878.33
2019-02-07T07:53:24.773Z,142875.97
2019-02-07T07:58:39.456Z,142868.97
2019-02-07T08:03:43.194Z,142897.05
2019-02-07T08:08:49.692Z,142943.84
2019-02-07T08:13:47.484Z,142950.84
2019-02-07T08:18:48.274Z,142943.84
2019-02-07T08:24:06.809Z,142989.44
2019-02-07T08:29:07.702Z,143018.72
2019-02-07T08:34:09.364Z,143037.45
2019-02-07T08:39:22.304Z,143073.70
2019-02-07T08:44:23.125Z,143166.22
2019-02-07T08:49:21.026Z,143210.70
2019-02-07T08:54:37.399Z,143206.03
2019-02-07T08:59:35.261Z,143202.48
2019-02-07T09:04:33.457Z,143229.44
2019-02-07T09:14:41.501Z,143232.94
2019-02-07T09:19:39.287Z,143254.03
2019-02-07T09:24:39.939Z,143282.16
2019-02-07T09:29:37.711Z,143304.45
2019-02-07T09:34:39.980Z,143312.67
2019-02-07T09:39:41.404Z,143311.47
2019-02-07T09:44:45.639Z,143333.72
2019-02-07T09:50:00.657Z,143332.56
2019-02-07T09:55:13.932Z,143329.06
2019-02-07T10:00:15.110Z,143337.22
2019-02-07T10:05:28.574Z,143334.92
2019-02-07T10:10:38.438Z,143344.30
2019-02-07T10:15:45.539Z,143344.30
2019-02-07T10:20:46.181Z,143381.78
2019-02-07T10:25:51.358Z,143412.22
2019-02-07T10:31:07.828Z,143418.09
2019-02-07T10:36:05.728Z,143427.47
2019-02-07T10:41:05.766Z,143480.22
2019-02-07T10:46:06.374Z,143480.22
2019-02-07T10:51:10.149Z,143483.72
2019-02-07T10:56:16.888Z,143473.19
2019-02-07T11:01:20.572Z,143447.41
2019-02-07T11:06:30.177Z,143447.41
2019-02-07T11:11:28.154Z,143446.22
2019-02-07T11:16:25.932Z,143480.22
2019-02-07T11:21:38.773Z,143510.70
2019-02-07T11:26:39.116Z,143514.22
2019-02-07T11:31:52.069Z,143525.95
2019-02-07T11:37:02.222Z,143599.78
2019-02-07T11:42:05.863Z,143670.19
2019-02-07T11:47:21.115Z,143707.72
2019-02-07T11:52:24.730Z,143673.69
2019-02-07T11:57:25.569Z,143672.48
2019-02-07T12:02:26.802Z,143693.62
2019-02-07T12:07:39.728Z,143775.78
2019-02-07T12:12:46.106Z,143752.34
2019-02-07T12:17:47.050Z,143772.27
2019-02-07T12:22:56.481Z,143768.75
2019-02-07T12:27:57.207Z,143732.41
2019-02-07T12:33:01.448Z,143769.95
2019-02-07T12:38:00.283Z,143759.36
2019-02-07T12:42:58.273Z,143780.50
2019-02-07T12:47:58.637Z,143731.16
2019-02-07T12:53:13.309Z,143714.75
2019-02-07T12:58:20.187Z,143726.48
2019-02-07T13:03:36.242Z,143749.97
2019-02-07T13:08:46.245Z,143796.91
2019-02-07T13:13:50.074Z,143762.88
2019-02-07T13:19:04.514Z,143803.94
2019-02-07T13:24:18.257Z,143801.63
2019-02-07T13:29:21.903Z,143791.03
2019-02-07T13:34:19.743Z,143768.75
2019-02-07T13:39:23.400Z,143711.23
2019-02-07T13:44:30.453Z,143751.19
2019-02-07T13:49:51.995Z,143724.12
2019-02-07T13:54:47.843Z,143733.56
2019-02-07T13:59:45.744Z,143708.87
2019-02-07T14:04:49.523Z,143717.11
2019-02-07T14:09:56.445Z,143710.03
2019-02-07T14:15:03.254Z,143684.23
2019-02-07T14:20:03.928Z,143694.81
2019-02-07T14:25:14.074Z,143678.36
2019-02-07T14:30:13.293Z,143646.70
2019-02-07T14:35:17.825Z,143651.41
2019-02-07T14:40:15.802Z,143672.48
2019-02-07T14:45:31.502Z,143695.97
2019-02-07T14:50:27.663Z,143738.23
2019-02-07T14:55:23.555Z,143703.00
2019-02-07T15:00:22.455Z,143677.22
2019-02-07T15:05:18.442Z,143684.23
2019-02-07T15:10:20.056Z,143667.83
2019-02-07T15:15:19.065Z,143666.67
2019-02-07T15:20:25.501Z,143653.72
2019-02-07T15:25:13.249Z,143649.06
2019-02-07T15:30:12.634Z,143649.06
2019-02-07T15:35:21.314Z,143642.03
2019-02-07T15:40:20.321Z,143606.86
2019-02-07T15:45:16.609Z,143613.87
2019-02-07T15:50:16.014Z,143606.86
2019-02-07T15:55:12.307Z,143606.86
2019-02-07T16:00:13.912Z,143606.86
2019-02-07T16:05:11.606Z,143611.53
2019-02-07T16:10:11.005Z,143585.73
2019-02-07T16:15:09.633Z,143585.73
2019-02-07T16:25:12.799Z,143529.45
2019-02-07T16:30:13.680Z,143515.38
2019-02-07T16:35:12.566Z,143515.38
2019-02-07T16:40:11.069Z,143515.38
2019-02-07T16:45:16.467Z,143527.09
2019-02-07T16:50:19.212Z,143528.25
2019-02-07T16:55:16.264Z,143523.59
2019-02-07T17:00:18.884Z,143516.56
2019-02-07T17:05:16.380Z,143503.67
2019-02-07T17:10:18.557Z,143515.38
2019-02-07T17:15:16.357Z,143508.34
2019-02-07T17:20:25.118Z,143520.08
2019-02-07T17:25:21.355Z,143515.38
2019-02-07T17:30:41.793Z,143511.86
2019-02-07T17:35:37.860Z,143507.19
2019-02-07T17:40:33.753Z,143494.30
2019-02-07T17:45:30.598Z,143481.38
2019-02-07T17:50:35.075Z,143482.56
2019-02-07T17:55:31.076Z,143473.19
2019-02-07T18:00:47.945Z,143468.47
2019-02-07T18:05:43.924Z,143461.45
2019-02-07T18:10:40.115Z,143449.72
2019-02-07T18:15:36.310Z,143433.33
2019-02-07T18:20:32.396Z,143393.47
2019-02-07T18:25:28.280Z,143371.22
2019-02-07T18:30:24.334Z,143351.31
2019-02-07T18:35:20.324Z,143316.17
2019-02-07T18:40:22.477Z,143319.69
2019-02-07T18:45:19.565Z,143305.59
2019-02-07T18:50:22.263Z,143295.03
2019-02-07T18:55:18.249Z,143300.94
2019-02-07T19:00:26.149Z,143276.28
2019-02-07T19:05:22.437Z,143269.27
2019-02-07T19:10:20.453Z,143262.25
2019-02-07T19:15:37.571Z,143261.06
2019-02-07T19:20:33.460Z,143257.55
2019-02-07T19:25:29.450Z,143262.25
2019-02-07T19:30:30.405Z,143262.25
2019-02-07T19:35:26.489Z,143245.81
2019-02-07T19:40:22.503Z,143252.88
2019-02-07T19:45:20.689Z,143251.69
2019-02-07T19:50:19.580Z,143245.81
2019-02-07T19:55:17.478Z,143227.08
2019-02-07T20:00:16.779Z,143221.22
2019-02-07T20:05:12.964Z,143227.08
2019-02-07T20:10:14.610Z,143221.22
2019-02-07T20:15:17.102Z,143208.34
2019-02-07T20:20:14.467Z,143203.69
2019-02-07T20:25:11.855Z,143180.25
2019-02-07T20:30:14.691Z,143181.44
2019-02-07T20:35:10.983Z,143176.73
2019-02-07T20:40:10.692Z,143153.34
2019-02-07T20:45:09.785Z,143170.88
2019-02-07T20:50:15.426Z,143159.19
2019-02-07T20:55:11.614Z,143142.78
2019-02-07T21:00:18.020Z,143134.61
2019-02-07T21:05:15.813Z,143161.50
2019-02-07T21:10:17.982Z,143166.22
2019-02-07T21:15:18.803Z,143172.08
2019-02-07T21:20:16.882Z,143175.58
2019-02-07T21:25:18.176Z,143156.84
2019-02-07T21:30:17.877Z,143162.70
2019-02-07T21:35:16.855Z,143145.12
2019-02-07T21:40:16.018Z,143127.59
2019-02-07T21:45:14.300Z,143128.75
2019-02-07T21:50:15.787Z,143131.09
2019-02-07T21:55:14.376Z,143105.31
2019-02-07T22:00:14.075Z,143105.31
2019-02-07T22:05:10.061Z,143098.30
2019-02-07T22:10:09.154Z,143100.66
2019-02-07T22:15:08.852Z,143093.64
2019-02-07T22:20:13.449Z,143103.00
2019-02-07T22:25:10.033Z,143099.50
2019-02-07T22:30:15.017Z,143107.66
2019-02-07T22:35:11.706Z,143111.17
2019-02-07T22:40:11.099Z,143105.31
2019-02-07T22:45:10.168Z,143119.37
2019-02-07T22:50:09.862Z,143113.53
2019-02-07T22:55:07.548Z,143107.66
2019-02-07T23:00:30.919Z,143121.73
2019-02-07T23:05:26.803Z,143108.86
2019-02-07T23:10:22.817Z,143128.75
2019-02-07T23:15:18.836Z,143125.23
2019-02-07T23:20:15.085Z,143126.39
2019-02-07T23:25:11.214Z,143126.39
2019-02-07T23:30:13.430Z,143098.30
2019-02-07T23:35:10.115Z,143083.08
2019-02-07T23:40:17.551Z,143062.03
2019-02-07T23:45:15.638Z,143051.47
2019-02-07T23:50:11.914Z,143056.19
2019-02-07T23:55:09.706Z,143046.81
